Time;durP1;ratioP1;P1;durP2;ratioP2;P2;SDS_P1;SDS_P2;PMS_P1;PMS_P2;Temp;Humidity;BMP_temperature;BMP_pressure;BME280_temperature;BME280_humidity;BME280_pressure;Samples;Min_cycle;Max_cycle;Signal;HPM_P1;HPM_P2
2021/08/15 00:00:56;;;;;;;18.47;12.53;;;16.50;99.90;;;;;;5073228;28;20627;-66
2021/08/15 00:03:22;;;;;;;14.80;12.97;;;16.50;99.90;;;;;;5073187;28;20186;-67
2021/08/15 00:05:48;;;;;;;15.80;14.07;;;16.40;99.90;;;;;;5073183;28;20205;-67
2021/08/15 00:08:13;;;;;;;15.27;13.80;;;16.40;99.90;;;;;;5073106;28;20281;-67
2021/08/15 00:10:39;;;;;;;15.77;13.00;;;16.30;99.90;;;;;;5072936;28;20700;-67
2021/08/15 00:13:06;;;;;;;15.37;13.77;;;16.40;99.90;;;;;;5072353;28;20220;-67
2021/08/15 00:15:32;;;;;;;16.60;13.87;;;16.40;99.90;;;;;;5072925;28;20213;-67
2021/08/15 00:17:58;;;;;;;14.73;13.33;;;16.40;99.90;;;;;;5072895;28;20166;-67
2021/08/15 00:20:24;;;;;;;15.27;13.40;;;16.30;99.90;;;;;;5072781;28;20181;-66
2021/08/15 00:22:49;;;;;;;13.87;12.57;;;16.30;99.90;;;;;;5072864;28;20261;-67
2021/08/15 00:25:17;;;;;;;15.27;13.47;;;16.20;99.90;;;;;;5073268;28;20190;-67
2021/08/15 00:27:46;;;;;;;14.80;12.93;;;16.20;99.90;;;;;;5071387;28;20713;-67
2021/08/15 00:30:14;;;;;;;14.90;12.30;;;16.00;99.90;;;;;;5072464;28;20174;-66
2021/08/15 00:32:41;;;;;;;18.33;12.80;;;15.90;99.90;;;;;;5072764;28;20612;-67
2021/08/15 00:35:07;;;;;;;18.30;14.83;;;15.80;99.90;;;;;;5072733;28;20228;-67
2021/08/15 00:37:34;;;;;;;19.60;14.07;;;15.90;99.90;;;;;;5072786;28;20201;-67
2021/08/15 00:39:59;;;;;;;16.43;13.83;;;15.90;99.90;;;;;;5072158;28;20178;-67
2021/08/15 00:42:25;;;;;;;19.77;12.73;;;16.00;99.90;;;;;;5072526;28;20178;-67
2021/08/15 00:44:52;;;;;;;14.83;13.33;;;16.00;99.90;;;;;;5071893;28;20564;-67
2021/08/15 00:47:18;;;;;;;14.77;12.90;;;15.90;99.90;;;;;;5072595;28;20198;-66
2021/08/15 00:49:44;;;;;;;16.43;13.60;;;15.90;99.90;;;;;;5071869;28;20205;-67
2021/08/15 00:52:09;;;;;;;15.83;13.63;;;15.90;99.90;;;;;;5072380;28;20166;-67
2021/08/15 00:54:35;;;;;;;18.90;14.20;;;16.00;99.90;;;;;;5072039;28;20255;-67
2021/08/15 00:57:01;;;;;;;18.63;14.20;;;16.00;99.90;;;;;;5072100;28;20172;-67
2021/08/15 00:59:27;;;;;;;16.10;12.73;;;16.00;99.90;;;;;;5072288;28;20224;-66
2021/08/15 01:01:54;;;;;;;18.90;14.80;;;16.00;99.90;;;;;;5071964;28;20181;-66
2021/08/15 01:04:26;;;;;;;18.80;14.63;;;16.00;99.90;;;;;;5072741;28;20198;-66
2021/08/15 01:06:52;;;;;;;17.03;15.30;;;15.90;99.90;;;;;;5072192;28;20180;-67
2021/08/15 01:09:22;;;;;;;15.83;13.07;;;16.00;99.90;;;;;;5071906;28;20202;-66
2021/08/15 01:11:48;;;;;;;15.87;14.27;;;15.90;99.90;;;;;;5065002;28;20248;-66
2021/08/15 01:14:14;;;;;;;16.37;14.17;;;15.90;99.90;;;;;;5071754;28;20667;-66
2021/08/15 01:16:42;;;;;;;19.67;15.13;;;15.90;99.90;;;;;;5071762;28;20585;-67
2021/08/15 01:19:09;;;;;;;16.80;13.43;;;15.90;99.90;;;;;;5071823;28;20174;-66
2021/08/15 01:21:35;;;;;;;16.77;15.07;;;15.90;99.90;;;;;;5071556;28;20234;-67
2021/08/15 01:24:01;;;;;;;17.63;14.80;;;15.80;99.90;;;;;;5070772;28;20197;-67
2021/08/15 01:26:28;;;;;;;21.30;15.07;;;15.80;99.90;;;;;;5071521;28;20194;-66
2021/08/15 01:28:53;;;;;;;18.33;15.87;;;15.80;99.90;;;;;;5071461;28;20206;-67
2021/08/15 01:31:21;;;;;;;19.03;15.90;;;15.80;99.90;;;;;;5071555;28;20166;-67
2021/08/15 01:33:47;;;;;;;16.03;14.33;;;15.80;99.90;;;;;;5071626;28;20163;-66
2021/08/15 01:36:15;;;;;;;18.87;15.70;;;15.70;99.90;;;;;;5071437;28;20216;-67
2021/08/15 01:38:41;;;;;;;17.13;15.33;;;15.70;99.90;;;;;;5071667;28;20531;-67
2021/08/15 01:41:08;;;;;;;20.70;15.93;;;15.60;99.90;;;;;;5071322;28;20177;-67
2021/08/15 01:43:49;;;;;;;18.83;14.13;;;15.60;99.90;;;;;;5071482;28;20174;-66
2021/08/15 01:46:16;;;;;;;16.87;14.60;;;15.50;99.90;;;;;;5071016;28;20240;-67
2021/08/15 01:48:41;;;;;;;16.10;14.40;;;15.40;99.90;;;;;;5071299;28;20206;-67
2021/08/15 01:51:07;;;;;;;20.37;15.80;;;15.40;99.90;;;;;;5071110;28;20659;-67
2021/08/15 01:53:32;;;;;;;16.03;14.57;;;15.40;99.90;;;;;;5071448;28;20215;-66
2021/08/15 01:55:58;;;;;;;17.70;13.83;;;15.40;99.90;;;;;;5071149;28;20198;-65
2021/08/15 01:58:24;;;;;;;15.97;14.30;;;15.40;99.90;;;;;;5071349;28;20424;-67
2021/08/15 02:00:49;;;;;;;16.37;14.63;;;15.40;99.90;;;;;;5070918;28;20247;-67
2021/08/15 02:03:15;;;;;;;21.77;15.07;;;15.40;99.90;;;;;;5071469;28;20166;-67
2021/08/15 02:05:43;;;;;;;19.87;13.93;;;15.40;99.90;;;;;;5071028;28;20201;-67
2021/08/15 02:08:09;;;;;;;16.57;14.80;;;15.40;99.90;;;;;;5071692;28;20851;-67
2021/08/15 02:10:34;;;;;;;16.57;14.60;;;15.40;99.90;;;;;;5070496;28;20185;-67
2021/08/15 02:13:02;;;;;;;21.97;16.00;;;15.30;99.90;;;;;;5071428;28;20173;-67
2021/08/15 02:15:28;;;;;;;16.73;14.07;;;15.30;99.90;;;;;;5070796;28;20213;-67
2021/08/15 02:17:54;;;;;;;16.90;14.00;;;15.30;99.90;;;;;;5071232;28;20170;-66
2021/08/15 02:20:20;;;;;;;20.13;13.63;;;15.30;99.90;;;;;;5070636;28;20650;-67
2021/08/15 02:22:46;;;;;;;16.00;13.03;;;15.30;99.90;;;;;;5071183;28;20245;-67
2021/08/15 02:25:14;;;;;;;15.73;12.97;;;15.20;99.90;;;;;;5070929;28;20284;-67
2021/08/15 02:27:41;;;;;;;19.47;12.80;;;15.20;99.90;;;;;;5071072;28;20181;-67
2021/08/15 02:30:09;;;;;;;16.50;12.20;;;15.10;99.90;;;;;;5070976;28;20702;-64
2021/08/15 02:32:35;;;;;;;15.50;12.47;;;15.20;99.90;;;;;;5070863;28;20244;-67
2021/08/15 02:35:02;;;;;;;18.07;12.80;;;15.10;99.90;;;;;;5071311;28;20606;-67
2021/08/15 02:37:28;;;;;;;14.23;12.93;;;15.20;99.90;;;;;;5074764;28;20541;-66
2021/08/15 02:39:58;;;;;;;14.10;12.10;;;15.10;99.90;;;;;;5074941;28;20166;-66
2021/08/15 02:42:25;;;;;;;15.67;11.67;;;15.10;99.90;;;;;;5074545;28;20253;-67
2021/08/15 02:44:51;;;;;;;14.43;12.10;;;15.00;99.90;;;;;;5074840;28;20568;-66
2021/08/15 02:47:16;;;;;;;14.20;11.93;;;15.00;99.90;;;;;;5074966;28;20178;-67
2021/08/15 02:49:42;;;;;;;14.87;11.43;;;15.00;99.90;;;;;;5073943;28;20221;-66
2021/08/15 02:52:08;;;;;;;11.90;10.53;;;15.00;99.90;;;;;;5074777;28;20202;-67
2021/08/15 02:54:37;;;;;;;16.03;11.40;;;15.00;99.90;;;;;;5074275;28;20538;-66
2021/08/15 02:57:03;;;;;;;12.93;10.20;;;15.00;99.90;;;;;;5074788;28;20252;-67
2021/08/15 02:59:29;;;;;;;14.13;11.17;;;15.00;99.90;;;;;;5074099;28;20587;-66
2021/08/15 03:01:55;;;;;;;16.10;11.13;;;15.00;99.90;;;;;;5074568;28;20268;-66
2021/08/15 03:04:20;;;;;;;14.13;11.07;;;15.00;99.90;;;;;;5074469;28;20194;-64
2021/08/15 03:06:46;;;;;;;13.77;11.50;;;15.00;99.90;;;;;;5074481;28;20185;-67
2021/08/15 03:09:12;;;;;;;14.67;11.13;;;15.10;99.90;;;;;;5074118;28;20305;-67
2021/08/15 03:11:38;;;;;;;14.90;11.00;;;15.10;99.90;;;;;;5074057;28;20296;-66
2021/08/15 03:14:03;;;;;;;12.63;11.33;;;15.00;99.90;;;;;;5074282;28;20261;-66
2021/08/15 03:16:29;;;;;;;15.47;11.00;;;15.10;99.90;;;;;;5073979;28;20713;-66
2021/08/15 03:18:55;;;;;;;14.23;11.33;;;15.10;99.90;;;;;;5074005;28;20244;-67
2021/08/15 03:21:20;;;;;;;17.33;11.13;;;15.10;99.90;;;;;;5074044;28;20180;-67
2021/08/15 03:23:46;;;;;;;13.23;10.93;;;15.00;99.90;;;;;;5074102;28;20554;-66
2021/08/15 03:26:11;;;;;;;13.07;10.73;;;15.00;99.90;;;;;;5074088;28;20262;-66
2021/08/15 03:28:38;;;;;;;11.50;10.30;;;15.00;99.90;;;;;;5073542;28;20201;-66
2021/08/15 03:31:03;;;;;;;13.40;10.20;;;14.90;99.90;;;;;;5072514;28;20583;-67
2021/08/15 03:33:29;;;;;;;11.17;10.07;;;14.90;99.90;;;;;;5073987;28;20296;-68
2021/08/15 03:35:55;;;;;;;14.13;10.97;;;14.90;99.90;;;;;;5073941;28;20194;-66
2021/08/15 03:38:21;;;;;;;10.47;9.37;;;14.80;99.90;;;;;;5073594;28;20651;-67
2021/08/15 03:40:46;;;;;;;10.77;9.67;;;14.80;99.90;;;;;;5073574;28;20227;-66
2021/08/15 03:43:12;;;;;;;11.80;10.60;;;14.90;99.90;;;;;;5073864;28;20601;-66
2021/08/15 03:45:39;;;;;;;13.60;9.90;;;14.90;99.90;;;;;;5073789;28;20190;-66
2021/08/15 03:48:06;;;;;;;11.87;10.60;;;14.90;99.90;;;;;;5072339;28;20182;-67
2021/08/15 03:50:31;;;;;;;12.27;9.70;;;14.90;99.90;;;;;;5072700;28;20179;-67
2021/08/15 03:52:57;;;;;;;14.00;10.87;;;14.80;99.90;;;;;;5073454;28;20542;-67
2021/08/15 03:55:22;;;;;;;16.30;10.50;;;14.80;99.90;;;;;;5073573;28;20198;-66
2021/08/15 03:57:48;;;;;;;17.57;10.27;;;14.80;99.90;;;;;;5073352;28;20261;-65
2021/08/15 04:00:14;;;;;;;11.00;9.87;;;14.80;99.90;;;;;;5073314;28;20281;-67
2021/08/15 04:02:40;;;;;;;12.97;10.83;;;14.80;99.90;;;;;;5073335;28;20162;-67
2021/08/15 04:05:06;;;;;;;11.20;10.10;;;14.80;99.90;;;;;;5072981;28;20499;-66
2021/08/15 04:07:31;;;;;;;11.50;10.30;;;14.70;99.90;;;;;;5073400;28;20166;-67
2021/08/15 04:09:57;;;;;;;14.87;11.17;;;14.70;99.90;;;;;;5072919;28;20255;-67
2021/08/15 04:12:23;;;;;;;12.90;11.67;;;14.70;99.90;;;;;;5073165;28;20205;-66
2021/08/15 04:17:16;;;;;;;11.53;10.40;;;14.70;99.90;;;;;;5070485;28;20242;-65
2021/08/15 04:19:43;;;;;;;11.57;10.40;;;14.70;99.90;;;;;;5072559;28;20615;-65
2021/08/15 04:22:10;;;;;;;16.50;10.20;;;14.70;99.90;;;;;;5072914;28;20220;-65
2021/08/15 04:24:35;;;;;;;15.40;11.13;;;14.70;99.90;;;;;;5072506;28;20201;-65
2021/08/15 04:27:01;;;;;;;11.43;10.20;;;14.70;99.90;;;;;;5071566;28;20233;-64
2021/08/15 04:29:26;;;;;;;13.30;11.37;;;14.70;99.90;;;;;;5058271;28;20298;-65
2021/08/15 04:31:52;;;;;;;15.77;12.07;;;14.70;99.90;;;;;;5051731;28;20170;-65
2021/08/15 04:34:18;;;;;;;13.23;10.47;;;14.70;99.90;;;;;;5064383;28;20265;-65
2021/08/15 04:36:43;;;;;;;15.83;11.80;;;14.80;99.90;;;;;;5072408;28;20198;-65
2021/08/15 04:39:09;;;;;;;17.57;11.83;;;14.80;99.90;;;;;;5072447;28;20210;-65
2021/08/15 04:41:34;;;;;;;14.20;12.80;;;14.90;99.90;;;;;;5072286;28;20175;-65
2021/08/15 04:44:00;;;;;;;12.97;11.67;;;15.00;99.90;;;;;;5063188;28;20237;-65
2021/08/15 04:46:26;;;;;;;19.20;13.23;;;15.10;99.90;;;;;;5065186;28;20289;-64
2021/08/15 04:48:51;;;;;;;12.90;11.60;;;15.10;99.90;;;;;;5064914;28;20620;-64
2021/08/15 04:51:17;;;;;;;17.10;12.90;;;15.20;99.90;;;;;;5054847;28;20175;-65
2021/08/15 04:53:42;;;;;;;17.23;13.10;;;15.20;99.90;;;;;;5068038;28;20190;-65
2021/08/15 04:56:08;;;;;;;18.90;13.43;;;15.30;99.90;;;;;;5072264;28;20651;-65
2021/08/15 04:58:35;;;;;;;17.83;13.57;;;15.30;99.90;;;;;;5057389;28;20179;-65
2021/08/15 05:01:01;;;;;;;17.63;12.97;;;15.40;99.90;;;;;;5052113;28;20178;-65
2021/08/15 05:03:27;;;;;;;20.97;14.97;;;15.60;99.90;;;;;;5065777;28;20479;-65
2021/08/15 05:05:53;;;;;;;21.00;15.47;;;15.70;99.90;;;;;;5072150;28;20251;-65
2021/08/15 05:08:19;;;;;;;17.60;14.53;;;15.70;99.90;;;;;;5060150;28;20213;-65
2021/08/15 05:10:44;;;;;;;17.33;14.50;;;15.80;99.90;;;;;;5052868;28;20170;-64
2021/08/15 05:13:11;;;;;;;18.73;14.47;;;16.00;99.90;;;;;;5072351;28;20198;-65
2021/08/15 05:15:36;;;;;;;16.80;13.63;;;16.00;99.90;;;;;;5071491;28;20205;-65
2021/08/15 05:18:02;;;;;;;15.93;13.27;;;16.10;99.90;;;;;;5070596;28;20243;-65
2021/08/15 05:20:29;;;;;;;22.20;13.97;;;16.10;99.90;;;;;;5056463;28;20186;-65
2021/08/15 05:22:57;;;;;;;19.33;13.40;;;16.20;99.90;;;;;;5052052;28;20265;-65
2021/08/15 05:25:23;;;;;;;18.23;13.50;;;16.20;99.90;;;;;;5051869;28;20202;-65
2021/08/15 05:27:49;;;;;;;15.33;11.63;;;16.40;99.90;;;;;;5051890;28;20632;-64
2021/08/15 05:30:15;;;;;;;20.57;11.70;;;16.40;99.90;;;;;;5051745;28;20174;-64
2021/08/15 05:32:41;;;;;;;14.27;11.03;;;16.50;99.90;;;;;;5065062;28;20182;-65
2021/08/15 05:35:08;;;;;;;15.90;11.10;;;16.50;99.90;;;;;;5071781;28;20186;-65
2021/08/15 05:37:33;;;;;;;12.00;9.90;;;16.60;99.90;;;;;;5059284;28;20171;-65
2021/08/15 05:39:59;;;;;;;11.37;9.83;;;16.70;99.90;;;;;;5051537;28;20178;-65
2021/08/15 05:42:25;;;;;;;12.87;10.20;;;16.70;99.90;;;;;;5061639;28;20260;-65
2021/08/15 05:44:50;;;;;;;14.27;10.60;;;16.70;99.90;;;;;;5065577;28;20257;-65
2021/08/15 05:47:16;;;;;;;12.37;11.17;;;16.80;99.90;;;;;;5051672;28;20179;-65
2021/08/15 05:49:42;;;;;;;10.33;9.33;;;16.90;99.90;;;;;;5052299;28;20201;-65
2021/08/15 05:52:07;;;;;;;14.77;10.63;;;17.00;99.90;;;;;;5059254;28;20181;-65
2021/08/15 05:54:33;;;;;;;14.57;11.13;;;17.10;99.90;;;;;;5068260;28;20258;-65
2021/08/15 05:56:58;;;;;;;11.67;10.47;;;17.10;99.90;;;;;;5051496;28;20702;-65
2021/08/15 05:59:24;;;;;;;10.90;9.57;;;17.10;99.90;;;;;;5050118;28;20540;-65
2021/08/15 06:01:50;;;;;;;10.60;9.47;;;17.30;99.90;;;;;;5054272;28;20181;-64
2021/08/15 06:04:16;;;;;;;10.53;8.80;;;17.40;99.90;;;;;;5072320;28;20543;-65
2021/08/15 06:06:42;;;;;;;10.17;9.20;;;17.60;99.90;;;;;;5051250;28;20199;-65
2021/08/15 06:09:07;;;;;;;12.77;9.23;;;17.80;99.90;;;;;;5051303;28;20275;-65
2021/08/15 06:11:33;;;;;;;9.40;8.40;;;18.10;99.90;;;;;;5072349;28;20253;-66
2021/08/15 06:13:59;;;;;;;9.07;8.20;;;18.30;99.90;;;;;;5061631;28;20183;-65
2021/08/15 06:16:24;;;;;;;10.50;8.40;;;18.70;99.90;;;;;;5055149;28;20206;-64
2021/08/15 06:18:51;;;;;;;11.67;8.47;;;19.20;99.90;;;;;;5066864;28;20554;-65
2021/08/15 06:21:16;;;;;;;9.23;8.23;;;19.60;99.90;;;;;;5075053;28;20178;-65
2021/08/15 06:23:42;;;;;;;8.30;7.50;;;20.00;99.90;;;;;;5063499;28;20714;-65
2021/08/15 06:26:08;;;;;;;9.77;8.77;;;20.30;99.90;;;;;;5055202;28;20280;-65
2021/08/15 06:28:33;;;;;;;7.83;7.13;;;20.70;99.90;;;;;;5063397;28;20567;-65
2021/08/15 06:30:59;;;;;;;9.83;7.60;;;21.00;99.90;;;;;;5074943;28;20173;-65
2021/08/15 06:33:25;;;;;;;8.10;7.43;;;21.10;99.90;;;;;;5067235;28;20186;-65
2021/08/15 06:35:50;;;;;;;10.60;7.70;;;21.20;99.90;;;;;;5054906;28;20199;-65
2021/08/15 06:38:16;;;;;;;7.80;7.00;;;21.30;99.90;;;;;;5054866;28;20210;-65
2021/08/15 06:40:41;;;;;;;8.90;6.70;;;21.40;99.90;;;;;;5055057;28;20201;-65
2021/08/15 06:43:09;;;;;;;8.63;7.77;;;21.40;99.90;;;;;;5075249;28;20178;-65
2021/08/15 06:45:35;;;;;;;7.63;6.90;;;21.50;99.90;;;;;;5073393;28;20563;-66
2021/08/15 06:48:01;;;;;;;7.97;7.05;;;21.60;99.90;;;;;;5074231;28;20182;-65
2021/08/15 06:50:26;;;;;;;8.30;6.35;;;22.00;99.90;;;;;;5074305;28;20169;-64
2021/08/15 06:52:52;;;;;;;7.72;7.03;;;22.20;99.90;;;;;;5058013;28;20528;-65
2021/08/15 06:55:18;;;;;;;8.02;6.93;;;22.60;99.90;;;;;;5074558;28;20227;-66
2021/08/15 06:57:43;;;;;;;6.57;5.75;;;23.00;99.90;;;;;;5056689;28;20293;-65
2021/08/15 07:00:09;;;;;;;7.15;6.45;;;23.20;99.90;;;;;;5054346;28;20551;-66
2021/08/15 07:02:40;;;;;;;9.05;6.32;;;23.30;99.90;;;;;;5055197;28;20269;-65
2021/08/15 07:05:07;;;;;;;6.85;6.00;;;23.30;99.90;;;;;;5062468;28;20178;-64
2021/08/15 07:07:33;;;;;;;7.72;6.85;;;23.50;99.90;;;;;;5074181;28;20561;-66
2021/08/15 07:09:59;;;;;;;7.15;6.55;;;23.60;99.90;;;;;;5067155;28;20198;-65
2021/08/15 07:12:24;;;;;;;8.27;6.72;;;23.60;99.90;;;;;;5054237;28;20259;-66
2021/08/15 07:14:50;;;;;;;7.53;6.38;;;23.40;99.90;;;;;;5058755;28;20174;-65
2021/08/15 07:17:16;;;;;;;8.75;7.57;;;23.40;99.90;;;;;;5072974;28;20178;-65
2021/08/15 07:19:41;;;;;;;6.65;6.00;;;23.30;99.90;;;;;;5069441;28;20178;-66
2021/08/15 07:22:07;;;;;;;6.50;5.85;;;23.40;99.90;;;;;;5054292;28;20177;-65
2021/08/15 07:24:32;;;;;;;6.82;5.53;;;23.60;99.90;;;;;;5054943;28;20201;-66
2021/08/15 07:26:58;;;;;;;7.18;6.47;;;23.80;99.90;;;;;;5063522;28;20543;-66
2021/08/15 07:29:25;;;;;;;8.90;6.30;;;24.20;99.90;;;;;;5072785;28;20574;-65
2021/08/15 07:31:50;;;;;;;7.88;6.32;;;24.30;99.90;;;;;;5073976;28;20178;-65
2021/08/15 07:34:16;;;;;;;7.20;5.80;;;24.40;99.90;;;;;;5073859;28;20623;-66
2021/08/15 07:36:41;;;;;;;6.43;5.63;;;24.70;99.90;;;;;;5073589;28;20190;-66
2021/08/15 07:39:07;;;;;;;6.95;6.32;;;25.10;99.90;;;;;;5067531;28;20189;-65
2021/08/15 07:41:33;;;;;;;7.78;6.63;;;25.50;99.90;;;;;;5054477;28;20240;-66
2021/08/15 07:43:58;;;;;;;8.20;6.00;;;26.00;99.90;;;;;;5059272;28;20627;-65
2021/08/15 07:46:24;;;;;;;6.75;6.03;;;26.40;99.90;;;;;;5073607;28;20598;-66
2021/08/15 07:48:50;;;;;;;6.65;5.78;;;26.50;99.90;;;;;;5073453;28;20202;-66
2021/08/15 07:51:16;;;;;;;6.13;5.53;;;26.20;99.90;;;;;;5071764;28;20654;-66
2021/08/15 07:53:42;;;;;;;7.05;6.35;;;25.90;99.90;;;;;;5073694;28;20174;-66
2021/08/15 07:56:07;;;;;;;8.50;6.30;;;25.80;99.90;;;;;;5057638;28;20201;-65
2021/08/15 07:58:35;;;;;;;6.25;5.65;;;25.70;99.90;;;;;;5073346;28;20257;-66
2021/08/15 08:01:01;;;;;;;6.82;5.90;;;25.90;99.90;;;;;;5056828;28;20183;-65
2021/08/15 08:03:27;;;;;;;8.02;6.85;;;26.20;99.90;;;;;;5053361;28;20182;-66
2021/08/15 08:05:53;;;;;;;7.03;5.55;;;26.40;99.90;;;;;;5067833;28;20233;-66
2021/08/15 08:08:18;;;;;;;6.65;5.50;;;26.70;99.90;;;;;;5073563;28;20262;-66
2021/08/15 08:10:45;;;;;;;6.97;6.30;;;27.20;99.90;;;;;;5059477;28;20170;-66
2021/08/15 08:13:11;;;;;;;7.78;6.82;;;27.80;99.90;;;;;;5052498;28;20544;-66
2021/08/15 08:15:38;;;;;;;7.10;6.47;;;28.40;99.90;;;;;;5065348;28;20214;-66
2021/08/15 08:18:04;;;;;;;6.35;5.40;;;29.00;99.90;;;;;;5072195;28;20178;-66
2021/08/15 08:20:35;;;;;;;7.15;5.60;;;29.40;99.90;;;;;;5061762;28;20550;-66
2021/08/15 08:23:01;;;;;;;7.22;5.82;;;29.40;99.90;;;;;;5053365;28;20245;-66
2021/08/15 08:25:26;;;;;;;6.57;5.10;;;29.80;99.90;;;;;;5063543;28;20198;-66
2021/08/15 08:27:52;;;;;;;5.85;5.38;;;30.00;99.90;;;;;;5073108;28;20174;-66
2021/08/15 08:30:17;;;;;;;6.57;5.97;;;30.50;99.90;;;;;;5063592;28;20214;-66
2021/08/15 08:32:43;;;;;;;6.03;5.43;;;30.70;99.90;;;;;;5052527;28;20179;-66
2021/08/15 08:35:09;;;;;;;5.35;4.85;;;30.60;99.90;;;;;;5059793;28;20190;-66
2021/08/15 08:37:35;;;;;;;7.60;5.18;;;30.80;99.90;;;;;;5072917;28;20181;-66
2021/08/15 08:40:01;;;;;;;5.78;5.22;;;31.20;99.90;;;;;;5066193;28;20183;-66
2021/08/15 08:42:27;;;;;;;6.60;6.05;;;31.20;99.90;;;;;;5052796;28;20173;-66
2021/08/15 08:44:56;;;;;;;6.80;5.95;;;30.80;99.90;;;;;;5057225;28;20178;-66
2021/08/15 08:47:22;;;;;;;6.78;5.90;;;30.30;99.90;;;;;;5072743;28;20175;-66
2021/08/15 08:49:48;;;;;;;6.82;6.15;;;30.00;99.90;;;;;;5068665;28;20653;-66
2021/08/15 08:52:15;;;;;;;6.35;5.72;;;29.90;99.90;;;;;;5052679;28;20182;-66
2021/08/15 08:54:41;;;;;;;6.45;5.93;;;30.00;99.90;;;;;;5054216;28;20180;-66
2021/08/15 08:57:06;;;;;;;6.05;5.40;;;30.00;99.90;;;;;;5066516;28;20742;-66
2021/08/15 08:59:37;;;;;;;6.78;6.18;;;30.00;99.90;;;;;;5052182;28;20170;-66
2021/08/15 09:02:03;;;;;;;6.63;5.97;;;30.20;99.90;;;;;;5070453;28;20174;-67
2021/08/15 09:04:28;;;;;;;9.40;5.63;;;30.10;99.90;;;;;;5056766;28;20183;-66
2021/08/15 09:06:54;;;;;;;5.78;5.28;;;30.30;99.90;;;;;;5052269;28;20194;-66
2021/08/15 09:09:21;;;;;;;6.05;5.50;;;30.50;99.90;;;;;;5065506;28;20209;-66
2021/08/15 09:11:49;;;;;;;9.02;5.60;;;30.50;99.90;;;;;;5072175;28;20627;-66
2021/08/15 09:14:25;;;;;;;5.93;5.32;;;30.50;99.90;;;;;;5056768;28;20185;-66
2021/08/15 09:16:58;;;;;;;6.10;5.53;;;30.30;99.90;;;;;;5050282;28;20692;-66
2021/08/15 09:19:34;;;;;;;5.13;4.72;;;30.10;99.90;;;;;;5052676;28;20262;-66
2021/08/15 09:22:13;;;;;;;5.72;5.22;;;29.90;99.90;;;;;;5050963;28;20183;-66
2021/08/15 09:25:05;;;;;;;6.63;5.30;;;29.80;99.90;;;;;;5066934;28;20242;-66
2021/08/15 09:27:49;;;;;;;6.13;5.63;;;29.80;99.90;;;;;;5070819;28;20181;-66
2021/08/15 09:30:23;;;;;;;6.57;5.03;;;29.70;99.90;;;;;;5051305;28;20194;-66
2021/08/15 09:32:59;;;;;;;5.05;4.55;;;29.40;99.90;;;;;;5050200;28;20280;-66
2021/08/15 09:35:30;;;;;;;6.10;5.60;;;28.80;99.90;;;;;;5071555;28;20197;-65
2021/08/15 09:38:03;;;;;;;6.30;5.70;;;28.60;99.90;;;;;;5070010;28;20166;-66
2021/08/15 09:40:36;;;;;;;7.20;4.90;;;28.80;99.90;;;;;;5051118;28;20225;-66
2021/08/15 09:43:04;;;;;;;8.60;5.90;;;29.00;99.90;;;;;;5052461;28;20186;-65
2021/08/15 09:45:35;;;;;;;6.70;5.35;;;29.30;99.90;;;;;;5070439;28;20194;-66
2021/08/15 09:48:16;;;;;;;5.07;4.45;;;29.70;99.90;;;;;;5070360;28;20182;-66
2021/08/15 09:50:42;;;;;;;4.82;4.43;;;30.30;99.90;;;;;;5051135;28;20535;-66
2021/08/15 09:53:25;;;;;;;4.68;4.35;;;30.50;99.90;;;;;;5052701;28;20170;-66
2021/08/15 09:55:51;;;;;;;5.40;5.00;;;30.60;99.90;;;;;;5071413;28;20201;-66
2021/08/15 09:58:17;;;;;;;5.75;5.25;;;29.90;99.90;;;;;;5069389;28;20174;-66
2021/08/15 10:00:43;;;;;;;6.65;4.40;;;29.80;99.90;;;;;;5051827;28;20301;-66
2021/08/15 10:03:09;;;;;;;6.00;5.25;;;29.60;99.90;;;;;;5051332;28;20221;-66
2021/08/15 10:05:35;;;;;;;5.95;5.43;;;29.70;99.90;;;;;;5069895;28;20276;-66
2021/08/15 10:08:02;;;;;;;5.38;4.90;;;29.50;99.90;;;;;;5071280;28;20636;-66
2021/08/15 10:10:28;;;;;;;5.80;5.22;;;29.30;99.90;;;;;;5051191;28;20182;-66
2021/08/15 10:12:54;;;;;;;7.18;5.72;;;28.80;99.90;;;;;;5051091;28;20167;-66
2021/08/15 10:15:20;;;;;;;6.15;5.63;;;28.30;99.90;;;;;;5089142;23;20202;-66
2021/08/15 10:17:48;;;;;;;5.25;4.90;;;28.30;99.90;;;;;;5051747;28;20193;-67
2021/08/15 10:20:20;;;;;;;6.22;5.47;;;28.80;99.90;;;;;;5050322;28;20185;-67
2021/08/15 10:22:48;;;;;;;6.38;5.43;;;29.00;99.90;;;;;;5051539;28;20175;-67
2021/08/15 10:25:41;;;;;;;6.78;5.43;;;29.20;99.90;;;;;;5051206;28;20530;-67
2021/08/15 10:28:27;;;;;;;4.93;4.55;;;29.30;99.90;;;;;;5031848;28;20246;-67
2021/08/15 10:30:53;;;;;;;5.68;5.18;;;29.80;99.90;;;;;;5011558;28;20180;-67
2021/08/15 10:33:20;;;;;;;6.30;4.90;;;30.00;99.90;;;;;;5011841;28;20160;-67
2021/08/15 10:36:14;;;;;;;6.07;5.43;;;30.20;99.90;;;;;;5031483;28;20887;-67
2021/08/15 10:38:40;;;;;;;9.57;7.35;;;29.90;99.90;;;;;;5031115;28;20188;-66
2021/08/15 10:41:05;;;;;;;7.85;6.55;;;29.30;99.90;;;;;;5031590;28;20225;-67
2021/08/15 10:43:31;;;;;;;10.07;6.88;;;29.30;99.90;;;;;;5031119;28;20225;-67
2021/08/15 10:46:32;;;;;;;8.85;6.68;;;29.20;99.90;;;;;;5031234;28;20192;-67
2021/08/15 10:49:02;;;;;;;6.55;5.95;;;29.00;99.90;;;;;;4970102;28;20248;-67
2021/08/15 10:51:40;;;;;;;5.57;5.05;;;28.90;99.90;;;;;;5016606;28;20557;-67
2021/08/15 10:54:06;;;;;;;8.20;6.53;;;29.00;99.90;;;;;;5031597;28;20225;-66
2021/08/15 10:56:51;;;;;;;7.65;4.95;;;29.20;99.90;;;;;;5032357;28;20184;-67
2021/08/15 10:59:37;;;;;;;5.13;4.70;;;29.70;99.90;;;;;;5035066;28;20245;-67
2021/08/15 11:02:08;;;;;;;6.10;5.50;;;30.00;99.90;;;;;;5035365;28;20325;-66
2021/08/15 11:04:34;;;;;;;5.55;4.72;;;30.10;99.90;;;;;;5034785;28;20175;-67
2021/08/15 11:07:00;;;;;;;4.70;4.30;;;30.10;99.90;;;;;;5034811;28;20200;-67
2021/08/15 11:09:52;;;;;;;5.00;4.60;;;30.10;99.90;;;;;;5034582;28;20199;-67
2021/08/15 11:12:18;;;;;;;5.20;4.57;;;30.50;99.90;;;;;;5034778;28;20260;-67
2021/08/15 11:15:08;;;;;;;5.00;4.53;;;30.40;99.90;;;;;;5034348;28;20214;-67
2021/08/15 11:17:38;;;;;;;5.15;4.70;;;30.40;99.90;;;;;;5034416;28;20183;-67
2021/08/15 11:20:33;;;;;;;4.68;4.28;;;30.50;99.90;;;;;;5034567;28;20225;-66
2021/08/15 11:23:11;;;;;;;4.55;4.10;;;30.90;99.90;;;;;;5034761;28;20237;-67
2021/08/15 11:25:37;;;;;;;5.45;4.95;;;30.80;99.90;;;;;;5034153;28;20698;-67
2021/08/15 11:28:03;;;;;;;5.95;5.07;;;30.50;99.90;;;;;;5034462;28;20175;-67
2021/08/15 11:30:28;;;;;;;5.43;4.93;;;30.40;99.90;;;;;;5034278;28;20167;-66
2021/08/15 11:32:57;;;;;;;4.78;4.38;;;30.60;99.90;;;;;;5034138;28;20250;-67
2021/08/15 11:35:29;;;;;;;5.88;4.78;;;31.10;99.90;;;;;;5034299;28;20657;-67
2021/08/15 11:37:54;;;;;;;5.30;4.80;;;31.20;99.90;;;;;;5034320;28;20640;-67
2021/08/15 11:40:24;;;;;;;5.72;5.22;;;31.20;99.90;;;;;;5034090;28;20312;-66
2021/08/15 11:43:05;;;;;;;5.28;4.80;;;31.40;99.90;;;;;;5033834;28;20253;-66
2021/08/15 11:45:36;;;;;;;5.13;4.60;;;31.50;99.90;;;;;;5034207;28;20198;-67
2021/08/15 11:48:12;;;;;;;5.22;4.72;;;31.00;99.90;;;;;;5034264;28;20182;-66
2021/08/15 11:50:41;;;;;;;5.05;4.60;;;30.50;99.90;;;;;;5034006;28;20175;-67
2021/08/15 11:53:27;;;;;;;5.15;4.78;;;30.30;99.90;;;;;;5034019;28;20526;-67
2021/08/15 11:55:55;;;;;;;5.00;4.57;;;30.00;99.90;;;;;;5034061;28;20294;-67
2021/08/15 11:58:21;;;;;;;6.47;4.75;;;30.00;99.90;;;;;;5033958;28;20171;-66
2021/08/15 12:00:48;;;;;;;5.32;4.93;;;30.00;99.90;;;;;;5033644;28;20178;-66
2021/08/15 12:03:16;;;;;;;5.45;4.60;;;30.30;99.90;;;;;;5033878;28;20175;-67
2021/08/15 12:05:55;;;;;;;5.57;5.07;;;30.40;99.90;;;;;;5032688;28;20218;-66
2021/08/15 12:08:37;;;;;;;9.85;6.85;;;30.80;99.90;;;;;;5032717;28;20522;-67
2021/08/15 12:11:23;;;;;;;8.02;5.38;;;30.90;99.90;;;;;;5033380;28;20182;-66
2021/08/15 12:13:50;;;;;;;4.97;4.47;;;30.90;99.90;;;;;;5033501;28;20183;-67
2021/08/15 12:16:16;;;;;;;5.63;4.95;;;30.70;99.90;;;;;;5033669;28;20215;-68
2021/08/15 12:18:47;;;;;;;5.47;4.97;;;30.40;99.90;;;;;;5033386;28;20179;-67
2021/08/15 12:21:16;;;;;;;4.85;4.45;;;30.40;99.90;;;;;;5033304;28;20179;-67
2021/08/15 12:24:08;;;;;;;5.55;5.05;;;30.00;99.90;;;;;;5033691;28;20652;-67
2021/08/15 12:26:35;;;;;;;8.05;4.97;;;29.40;99.90;;;;;;5024908;28;20258;-66
2021/08/15 12:29:05;;;;;;;5.70;5.20;;;29.40;99.90;;;;;;5032476;28;20210;-66
2021/08/15 12:31:34;;;;;;;6.80;4.90;;;29.80;99.90;;;;;;5032432;28;20180;-66
2021/08/15 12:34:18;;;;;;;4.75;4.35;;;29.80;99.90;;;;;;5032502;28;20178;-66
2021/08/15 12:36:45;;;;;;;5.03;4.63;;;29.70;99.90;;;;;;5032741;28;20259;-66
2021/08/15 12:39:12;;;;;;;5.78;5.28;;;29.70;99.90;;;;;;5032259;28;20770;-67
2021/08/15 12:42:04;;;;;;;7.03;4.80;;;29.90;99.90;;;;;;5032269;28;20179;-66
2021/08/15 12:44:54;;;;;;;5.72;5.22;;;30.10;99.90;;;;;;5032244;28;20183;-66